NWS Home NWS Lubbock West Texas Mesonet Latest Conditions as of 0252 PM, Thu May 06, 2021

Latest   N   C   S   Daily Sum   3hrΔ   24hrΔ   Soil Data 
Site Map   24hr Precip   72hr Precip   Google Plot


Station Time of Last Temp Dew Pt. RH Wind Direction Wind Speed Wind Gust Max Wind Max Temp Min Temp Max RH Min RH Altimeter 1HR Rain Today's Rain Solar Rad RFTI
Abernathy 5ENE  02:45 PM 76 46 33% S1316 28 mph 67° @ 0311 AM 77 50 81 33 30.27" 0 0 999 0
Adrian 6WSW  02:45 PM 74 44 34% S1314 34 mph 61° @ 1210 AM 74 48 81 34 30.30" 0 0 1003 0
Aiken 3WSW  02:45 PM 76 47 35% S1014 30 mph 63° @ 0247 AM 77 50 82 34 30.28" 0 0 1007 0
Amarillo 15NNW   02:45 PM 77 38 24% SE56 30 mph 64° @ 1216 AM 79 54 74 24 30.27" 0 0 962 0
Amarillo 7SSE  02:45 PM 77 40 26% SE710 28 mph 61° @ 1235 AM 78 46 100 22 30.29" 0 0 950 0
Amarillo 9NNE  02:45 PM 78 39 25% SE1316 30 mph 58° @ 1202 AM 78 52 83 24 30.27" 0 0 995 0
Amherst 1NE  02:45 PM 76 44 32% SE1114 28 mph 77° @ 0437 AM 77 48 82 31 30.27" 0 0 989 0
Andrews 2E  02:45 PM 79 50 36% E37 24 mph 141° @ 0221 PM 80 56 73 35 30.23" 0 0 971 0
Anton 6SSW  02:45 PM 77 46 34% SE1421 29 mph 114° @ 0950 AM 77 50 76 34 30.26" 0 0 979 0
Aspermont 3NE  02:45 PM 80 46 30% SE79 16 mph 119° @ 0209 PM 81 49 94 28 30.22" 0 0 985 0
Big Bend NP - Castolon  02:05 PM 93 48 22% SE34 13 mph 145° @ 1242 PM 94 66 57 20 30.08" 0 0 1030 0
Big Bend NP - Persimmon Gap  02:45 PM 86 49 27% E1519 27 mph 55° @ 1233 PM 87 65 60 27 30.15" 0 0 957 0
Big Lake 1WNW  02:45 PM 84 51 32% E1013 21 mph 98° @ 0113 PM 84 58 70 31 30.22" 0 0 982 0
Bootleg 11WNW  02:45 PM 72 42 35% SE1116 28 mph 39° @ 0143 AM 73 46 87 33 30.33" 0 0 913 0
Borger 7E  02:45 PM 75 42 31% S58 24 mph 143° @ 0225 AM 75 54 77 24 30.28" 0 0 1006 0
Boys Ranch 1WSW  02:45 PM 78 43 29% SE24 30 mph 70° @ 1206 AM 79 54 72 28 30.25" 0 0 1017 0
Brownfield 2S  02:45 PM 76 48 37% S1722 27 mph 135° @ 0145 PM 76 53 79 37 30.27" 0 0 1009 0
Canadian 6E  02:45 PM 74 46 37% SE44 19 mph 345° @ 1132 AM 74 53 100 36 30.26" 0 0.02 996 0
Caprock Canyons State Park  02:45 PM 78 43 28% SE1417 20 mph 136° @ 0222 PM 79 51 85 26 30.26" 0 0 379 0
Childress 2NNE  02:45 PM 81 43 28% S510 20 mph 34° @ 0210 AM 81 53 87 26 30.23" 0 0 964 0
Clarendon 2WSW  02:45 PM 76 40 28% SE1016 24 mph 37° @ 1220 AM 76 49 86 26 30.27" 0 0 611 0
Claude 12SW  02:45 PM 76 42 30% E1114 28 mph 49° @ 1238 AM 76 48 91 22 30.28" 0 0 995 0
Clyde 2WNW  02:45 PM 80 45 29% E1114 20 mph 108° @ 0314 AM 80 51 79 26 30.24" 0 0 945 0
Colorado City 5NW  02:45 PM 80 50 34% SE813 22 mph 140° @ 1228 PM 82 55 73 33 30.24" 0 0 943 0
Comanche Springs  02:45 PM 81 41 24% E79 18 mph 134° @ 0211 PM 83 46 94 21 30.23" 0 0 993 0
Coyanosa 2N  02:45 PM 89 48 24% NE49 32 mph 318° @ 0759 AM 90 62 64 23 30.16" 0 0 1011 0
Crane 1NNW   02:45 PM 86 53 33% S1315 25 mph 124° @ 1045 AM 86 63 64 33 30.19" 0 0 983 0
Crowell 1E  02:45 PM 79 52 39% NE811 15 mph 48° @ 0106 AM 80 52 89 34 30.24" 0 0 964 0
Dell City  02:45 PM 85 43 23% NE68 19 mph 168° @ 1233 AM 86 49 70 21 30.20" 0 0 976 0
Denver City 7WNW  02:45 PM 78 48 35% SE1116 24 mph 24° @ 0350 AM 78 53 78 35 30.26" 0 0 1020 0
Dimmitt 2NE  02:45 PM 74 45 36% SE1318 34 mph 71° @ 0250 AM 74 47 90 36 30.28" 0 0 958 0
Doole 3WNW  02:45 PM 82 45 27% NE1215 18 mph 101° @ 0100 PM 83 52 81 25 30.20" 0 0 984 0
Dora NM 2SW  02:45 PM 74 44 35% S711 23 mph 338° @ 0120 AM 75 47 85 33 30.29" 0 0 964 0
Dozier 3W  02:45 PM 79 43 28% NE69 24 mph 54° @ 1216 AM 80 56 81 26 30.26" 0 0 957 0
Earth 9WSW  02:45 PM 76 45 32% E810 34 mph 74° @ 0430 AM 77 49 83 32 30.28" 0 0 1008 0
Endee NM 2SW  02:45 PM 75 44 33% SE1418 36 mph 32° @ 1206 AM 76 51 72 33 30.28" 0 0 936 0
Estelline 3SSE  02:45 PM 82 42 24% E1114 18 mph 55° @ 0244 AM 83 50 89 22 30.23" 0 0 975 0
Floydada 2NNE  02:45 PM 77 47 35% SE917 24 mph 147° @ 0100 PM 77 50 83 34 30.26" 0 0 1006 0
Fluvanna 3WNW  02:45 PM 77 47 36% SE918 25 mph 128° @ 0225 PM 77 54 76 36 30.25" 0 0 937 0
Fort Chadbourne  02:45 PM 81 50 34% E67 20 mph 88° @ 0836 AM 81 55 76 34 30.23" 0 0 917 0
Fort Lancaster  02:45 PM 86 56 36% SE1317 22 mph 129° @ 0136 PM 87 63 65 36 30.17" 0 0 955 0
Fort Lewis CO  02:45 PM 75 20 12% S710 18 mph 220° @ 0227 PM 75 32 53 10 30.38" 0 0 1051 0
Fort McKavett  02:45 PM 81 55 41% E811 16 mph 53° @ 0231 PM 82 51 86 36 30.23" 0 0 974 0
Friona 2NE  02:45 PM 74 43 35% SE1216 29 mph 80° @ 0130 AM 74 47 83 35 30.30" 0 0 981 0
Fritch 1WNW  02:45 PM 76 40 28% NE23 26 mph 122° @ 0213 AM 77 56 74 28 30.27" 0 0 974 0
Gail 2ESE  02:45 PM 78 48 36% E811 24 mph 152° @ 0145 PM 78 55 77 34 30.24" 0 0 979 0
Goodlett 3W  02:45 PM 81 46 29% SE913 17 mph 54° @ 1250 AM 82 51 92 29 30.22" 0 0 1000 0
Goodnight  02:45 PM 78 39 25% SE812 25 mph 48° @ 1213 AM 78 48 88 25 30.29" 0 0 948 0
Graham 5SSW  02:45 PM 77 45 33% SE1114 32 mph 45° @ 0347 AM 78 53 74 33 30.26" 0 0 1000 0
Guadalupe Mtns Natl Park  02:45 PM 72 42 34% E1013 23 mph 85° @ 0226 PM 75 61 40 20 30.33" 0 0 991 0
Guthrie 10WSW  02:45 PM 83 43 25% SE1519 23 mph 156° @ 0121 PM 83 50 84 24 30.22" 0 0 981 0
Hackberry 2SSE  02:45 PM 85 44 24% SE1317 24 mph 171° @ 1222 PM 85 49 89 20 30.22" 0 0 321 0
Happy 1E  02:45 PM 75 45 33% SE911 28 mph 70° @ 0151 AM 77 47 89 32 30.28" 0 0 1015 0
Hart 3N  02:45 PM 75 45 34% SE1018 33 mph 65° @ 0320 AM 75 47 91 34 30.28" 0 0 979 0
Haskell 1NW  02:45 PM 82 47 31% E510 15 mph 136° @ 1005 AM 82 51 88 30 30.21" 0 0 931 0
Hefner 1SW  02:45 PM 81 49 33% NE1013 17 mph 73° @ 0147 AM 82 52 91 30 30.23" 0 0 941 0
Hereford 2NW  02:45 PM 74 44 35% SE1319 26 mph 59° @ 0235 AM 75 50 83 34 30.28" 0 0 964 0
Hobbs NM 5NW  02:45 PM 78 43 29% E57 27 mph 36° @ 0435 AM 80 53 74 27 30.28" 0 0 996 0
Jayton 1SSE  02:45 PM 81 47 31% SE812 18 mph 141° @ 0240 PM 81 52 83 31 30.23" 0 0 978 0
Junction 1SSW  02:45 PM 81 53 38% NE1014 18 mph 43° @ 0203 PM 82 45 100 37 30.21" 0 0 871 0
Kent 9E  02:45 PM 80 46 29% NE1012 20 mph 19° @ 1245 PM 82 56 45 28 30.25" 0 0 1018 0
Knox City 3NW  02:45 PM 81 47 31% E812 19 mph 175° @ 1028 AM 82 51 93 27 30.22" 0 0 979 0
Lake Alan Henry 1NW  02:45 PM 79 49 35% SE1115 19 mph 64° @ 0349 AM 79 53 75 33 30.23" 0 0 951 0
Lake McClellan 2NW  02:45 PM 75 38 26% S911 25 mph 53° @ 1202 AM 75 53 84 26 30.29" 0 0 934 0
Lamesa 2SE  02:45 PM 77 48 36% SE1116 25 mph 96° @ 0955 AM 77 54 78 36 30.25" 0 0 983 0
Lesley 2S  02:45 PM 83 44 25% E1318 27 mph 50° @ 0214 AM 83 50 89 25 30.24" 0 0 972 0
Levelland 4S  02:45 PM 77 45 33% SE1418 32 mph 124° @ 0957 AM 77 52 71 33 30.26" 0 0 973 0
Lomax 1SSE  02:45 PM 80 50 35% SE1015 24 mph 110° @ 0132 PM 80 56 77 35 30.23" 0 0 984 0
Lubbock 3WNW TTU  02:45 PM 78 46 34% SE814 26 mph 119° @ 0955 AM 78 52 71 33 30.27" 0 0 981 0
McAdoo 3NNW  02:45 PM 78 48 34% S812 23 mph 150° @ 1144 AM 79 48 87 33 30.27" 0 0 970 0
McCamey 1SSW  02:45 PM 85 54 35% SE911 24 mph 145° @ 0107 PM 86 64 60 34 30.18" 0 0 968 0
McLean 1E  02:45 PM 75 40 29% SW811 22 mph 63° @ 0115 AM 75 54 81 28 30.26" 0 0 1003 0
Memphis 1NE  02:45 PM 80 42 26% E1114 20 mph 32° @ 0204 AM 80 50 91 26 30.25" 0 0 1031 0
Menard 2NW   02:45 PM 80 50 35% E610 15 mph 77° @ 0228 PM 80 50 88 35 30.22" 0 0 896 0
Mertzon 3NNE  02:45 PM 81 53 39% NE1216 21 mph 78° @ 0225 PM 82 52 87 37 30.23" 0 0 920 0
Morton 1ENE  02:45 PM 76 47 36% SE1423 25 mph 72° @ 0425 AM 77 49 79 36 30.27" 0 0 977 0
Muleshoe 2SSW  02:45 PM 76 43 32% S1219 28 mph 88° @ 0335 AM 76 48 89 31 30.27" 0 0 1048 0
New Home  02:45 PM 77 46 33% SE1217 28 mph 124° @ 1115 AM 78 52 70 32 30.28" 0 0 964 0
Northfield 1S  02:45 PM 82 38 21% SE714 19 mph 52° @ 0205 AM 83 48 93 21 30.22" 0 0 639 0
O'Donnell 1N  02:45 PM 77 49 37% SE1215 28 mph 101° @ 1040 AM 77 53 78 36 30.26" 0 0 1016 0
Odell 4ENE  02:45 PM 80 49 34% E810 17 mph 79° @ 1234 AM 80 55 91 32 30.24" 0 0.01 973 0
Olton 6S  02:45 PM 76 45 35% SE1218 25 mph 75° @ 0420 AM 76 49 84 34 30.27" 0 0 969 0
Paducah 10SW  02:45 PM 82 43 25% SE48 24 mph 149° @ 0224 PM 83 51 84 22 30.23" 0 0 1009 0
Palo Duro 4E (JA Ranch)  02:45 PM 79 40 25% E1013 22 mph 36° @ 1250 AM 79 46 92 22 30.26" 0 0 931 0
Palo Duro Canyon SP Floor  02:45 PM 82 42 25% SE711 26 mph 120° @ 0121 AM 82 51 81 24 30.24" 0 0 940 0
Palo Duro Canyon State Park Rim  02:45 PM 79 40 25% SE58 26 mph 63° @ 0109 AM 79 51 76 24 30.28" 0 0 1002 0
Palo Duro Reservoir 1NW   02:45 PM 72 44 37% NW69 14 mph 353° @ 1030 AM 73 51 94 37 30.29" 0 0.05 938 0
Pampa 2E  02:35 PM 73 45 38% SE69 23 mph 97° @ 0130 AM 73 53 89 37 30.29" 0 0 963 0
Panhandle 1SSW  02:45 PM 74 40 29% SW67 24 mph 52° @ 1205 AM 75 50 95 27 30.30" 0 0 974 0
Plains 3N  02:45 PM 76 46 36% E1218 26 mph 24° @ 0320 AM 77 52 77 35 30.27" 0 0 1002 0
Plainview 1S  02:45 PM 76 45 34% SE913 28 mph 67° @ 0325 AM 78 50 81 32 30.27" 0 0 994 0
Post 1NE  02:45 PM 80 47 31% SE914 24 mph 111° @ 1150 AM 80 52 76 30 30.24" 0 0 1004 0
Ralls 1SE  02:45 PM 77 46 33% S1016 27 mph 60° @ 0318 AM 78 52 73 30 30.26" 0 0 981 0
Reese Center  02:45 PM 76 46 34% SE811 35 mph 126° @ 1017 AM 77 52 69 33 30.26" 0 0 998 0
Roaring Springs 3N  02:45 PM 79 47 32% SE1115 25 mph 114° @ 0241 PM 80 49 83 30 30.25" 0 0 1018 0
Romero 11SSW  02:45 PM 75 45 34% E1215 30 mph 39° @ 1203 AM 76 51 81 33 30.28" 0 0 940 0
Rotan 5W  02:45 PM 79 51 37% E1114 19 mph 63° @ 0421 AM 80 51 87 34 30.24" 0 0 1144 0
San Angelo 7NW  02:45 PM 81 48 32% E1016 24 mph 87° @ 0205 PM 81 56 73 32 30.22" 0 0 927 0
Seagraves 1SW  02:45 PM 77 48 35% E915 28 mph 18° @ 0356 AM 78 53 75 34 30.26" 0 0 1005 0
Segovia 7SSW  02:45 PM 81 51 35% N710 15 mph 120° @ 0938 AM 82 53 79 35 30.22" 0 0 988 0
Seminole 2NNE  02:45 PM 78 48 36% SE1318 28 mph 20° @ 0425 AM 78 53 79 36 30.25" 0 0 996 0
Seymour 3NW  02:45 PM 80 52 39% E611 18 mph 54° @ 0130 AM 80 51 95 35 30.23" 0 0 864 0
Sierra Blanca 1SSE  02:45 PM 85 39 20% SE1619 24 mph 120° @ 0209 PM 86 60 44 16 30.23" 0 0 909 0
Silverton 7ESE  02:45 PM 77 45 33% E1319 28 mph 59° @ 0210 AM 78 50 85 31 30.27" 0 0 530 0
Slaton 2NE  02:45 PM 78 46 32% SE1219 28 mph 107° @ 1116 AM 78 53 69 31 30.27" 0 0 1007 0
Smyer  02:45 PM 77 46 33% SE1013 29 mph 103° @ 1014 AM 78 51 70 32 30.27" 0 0 1023 0
Snyder 3E  02:45 PM 81 49 34% SE1015 25 mph 67° @ 0530 AM 81 53 74 33 30.24" 0 0 908 0
Snyder 3SSW  02:45 PM 80 51 37% SE78 22 mph 114° @ 1219 PM 80 54 77 36 30.25" 0 0 947 0
South Plains 3ENE  02:45 PM 78 47 34% SE1219 23 mph 50° @ 0223 AM 79 50 87 30 30.27" 0 0 319 0
Spur 1W  02:45 PM 81 47 31% SE914 19 mph 62° @ 0310 AM 81 53 76 31 30.23" 0 0 982 0
St. Lawrence 5SW  02:45 PM 82 51 34% SE1316 27 mph 144° @ 0102 PM 82 56 78 34 30.23" 0 0 1023 0
Stamford 5ESE  02:45 PM 82 46 28% SE1113 16 mph 124° @ 0135 PM 82 50 92 26 30.22" 0 0 954 0
Sterling City 4WSW  02:45 PM 80 48 33% SE811 22 mph 100° @ 0132 PM 81 50 93 32 30.24" 0 0 817 0
Stinnett 1NNW  02:45 PM 74 39 28% W710 17 mph 71° @ 1202 AM 74 52 83 27 30.29" 0 0 982 0
Stratford 4WNW  02:45 PM 74 40 29% S1115 23 mph 187° @ 0239 PM 75 43 92 29 30.29" 0 0 974 0
Sundown 8WSW  02:45 PM 77 45 34% SE819 28 mph 108° @ 0910 AM 77 51 75 33 30.27" 0 0 906 0
Sweetwater 11SW   02:45 PM 78 50 38% E911 28 mph 147° @ 1246 AM 79 51 79 34 30.26" 0 0 1039 0
Tahoka 3NNE  02:45 PM 78 47 34% SE1419 24 mph 97° @ 1112 AM 79 51 75 33 30.26" 0 0 987 0
Tarzan 2WNW  02:45 PM 80 51 37% E1720 25 mph 125° @ 0106 PM 80 55 72 36 30.24" 0 0 971 0
Tatum NM 2SW  02:45 PM 78 48 36% SE712 23 mph 75° @ 0530 AM 78 51 79 36 30.28" 0 0 969 0
Throckmorton 1SW  02:45 PM 80 52 37% E1014 14 mph 72° @ 0231 PM 81 50 94 32 30.22" 0 0 972 0
Truscott 2SE  02:45 PM 81 48 31% E1112 18 mph 72° @ 0208 AM 81 50 91 28 30.22" 0 0 955 0
Tulia 2ENE  02:45 PM 77 47 36% SE1519 28 mph 140° @ 1210 PM 77 48 85 35 30.27" 0 0 807 0
Turkey 2WSW  02:45 PM 78 43 29% SE1216 24 mph 49° @ 0200 AM 81 51 89 28 30.24" 0 0 351 0
Umbarger 3NNE  02:45 PM 78 45 32% SE1725 29 mph 153° @ 0136 PM 78 47 84 31 30.28" 0 0 984 0
Van Horn 3ENE  02:45 PM 84 45 26% NE1719 27 mph 14° @ 0107 PM 85 59 56 21 30.21" 0 0 1022 0
Vega 4E  02:45 PM 76 42 29% E1521 38 mph 58° @ 1214 AM 77 48 84 29 30.29" 0 0 1024 0
Vigo Park  02:45 PM 79 45 29% S1720 25 mph 60° @ 0205 AM 79 47 88 26 30.27" 0 0 992 0
Wall 2E  02:45 PM 81 47 30% E78 18 mph 60° @ 0135 PM 82 53 78 30 30.23" 0 0 974 0
Weinert 2NNE  02:45 PM 80 49 33% NE710 17 mph 88° @ 0219 AM 81 53 78 28 30.22" 0 0 888 0
Welch  02:45 PM 78 49 36% SE1923 30 mph 122° @ 0204 PM 78 53 79 35 30.26" 0 0 975 0
Wellington 6SE  02:45 PM 79 41 26% E611 25 mph 30° @ 0134 AM 80 56 78 24 30.24" 0 0 1023 0
White River Lake 6NW  02:45 PM 79 47 32% S1316 26 mph 48° @ 0330 AM 80 53 72 30 30.24" 0 0 1015 0
Wolfforth 6SSW  02:45 PM 77 46 32% S1220 32 mph 124° @ 1035 AM 78 52 69 32 30.27" 0 0 982 0

West Texas Mesonet Home   Site Map/Menu  NWS Lubbock Soil Data  Daily Summary Page  24hr Precip  72hr Precip  Google Plot